sensor_id;sensor_type;location;lat;lon;timestamp;P1;durP1;ratioP1;P2;durP2;ratioP2
25207;SDS011;13153;52.316;21.166;2023-12-28T00:01:25;65.72;;;27.90;;
25207;SDS011;13153;52.316;21.166;2023-12-28T00:03:51;61.65;;;28.50;;
25207;SDS011;13153;52.316;21.166;2023-12-28T00:06:17;60.72;;;28.38;;
25207;SDS011;13153;52.316;21.166;2023-12-28T00:08:42;57.92;;;28.25;;
25207;SDS011;13153;52.316;21.166;2023-12-28T00:11:08;64.65;;;28.65;;
25207;SDS011;13153;52.316;21.166;2023-12-28T00:13:34;61.90;;;28.77;;
25207;SDS011;13153;52.316;21.166;2023-12-28T00:16:01;63.15;;;28.45;;
25207;SDS011;13153;52.316;21.166;2023-12-28T00:18:26;64.38;;;28.63;;
25207;SDS011;13153;52.316;21.166;2023-12-28T00:20:52;66.80;;;28.88;;
25207;SDS011;13153;52.316;21.166;2023-12-28T00:23:18;65.88;;;29.13;;
25207;SDS011;13153;52.316;21.166;2023-12-28T00:25:47;66.80;;;29.25;;
25207;SDS011;13153;52.316;21.166;2023-12-28T00:28:12;66.32;;;29.60;;
25207;SDS011;13153;52.316;21.166;2023-12-28T00:30:38;69.07;;;30.45;;
25207;SDS011;13153;52.316;21.166;2023-12-28T00:33:04;62.05;;;29.58;;
25207;SDS011;13153;52.316;21.166;2023-12-28T00:35:30;63.35;;;30.88;;
25207;SDS011;13153;52.316;21.166;2023-12-28T00:37:55;302.00;;;107.93;;
25207;SDS011;13153;52.316;21.166;2023-12-28T00:40:21;329.83;;;126.05;;
25207;SDS011;13153;52.316;21.166;2023-12-28T00:42:47;306.50;;;119.53;;
25207;SDS011;13153;52.316;21.166;2023-12-28T00:45:13;308.30;;;107.78;;
25207;SDS011;13153;52.316;21.166;2023-12-28T00:47:39;241.15;;;87.95;;
25207;SDS011;13153;52.316;21.166;2023-12-28T00:50:08;178.23;;;63.88;;
25207;SDS011;13153;52.316;21.166;2023-12-28T00:52:39;149.35;;;55.40;;
25207;SDS011;13153;52.316;21.166;2023-12-28T00:55:06;83.40;;;33.20;;
25207;SDS011;13153;52.316;21.166;2023-12-28T00:57:32;79.65;;;31.88;;
25207;SDS011;13153;52.316;21.166;2023-12-28T00:59:59;66.00;;;28.30;;
25207;SDS011;13153;52.316;21.166;2023-12-28T01:02:25;59.33;;;27.13;;
25207;SDS011;13153;52.316;21.166;2023-12-28T01:04:50;68.82;;;28.17;;
25207;SDS011;13153;52.316;21.166;2023-12-28T01:07:16;59.97;;;27.27;;
25207;SDS011;13153;52.316;21.166;2023-12-28T01:09:42;63.72;;;27.85;;
25207;SDS011;13153;52.316;21.166;2023-12-28T01:12:08;61.10;;;27.52;;
25207;SDS011;13153;52.316;21.166;2023-12-28T01:14:33;64.63;;;26.48;;
25207;SDS011;13153;52.316;21.166;2023-12-28T01:16:59;62.05;;;24.92;;
25207;SDS011;13153;52.316;21.166;2023-12-28T01:19:25;55.17;;;24.50;;
25207;SDS011;13153;52.316;21.166;2023-12-28T01:21:50;53.35;;;25.67;;
25207;SDS011;13153;52.316;21.166;2023-12-28T01:24:16;54.90;;;25.10;;
25207;SDS011;13153;52.316;21.166;2023-12-28T01:26:42;59.35;;;24.40;;
25207;SDS011;13153;52.316;21.166;2023-12-28T01:29:08;55.58;;;23.48;;
25207;SDS011;13153;52.316;21.166;2023-12-28T01:31:34;52.33;;;22.92;;
25207;SDS011;13153;52.316;21.166;2023-12-28T01:34:00;56.63;;;23.08;;
25207;SDS011;13153;52.316;21.166;2023-12-28T01:36:25;52.63;;;22.60;;
25207;SDS011;13153;52.316;21.166;2023-12-28T01:38:54;51.25;;;21.50;;
25207;SDS011;13153;52.316;21.166;2023-12-28T01:41:20;54.30;;;21.77;;
25207;SDS011;13153;52.316;21.166;2023-12-28T01:43:45;56.05;;;23.27;;
25207;SDS011;13153;52.316;21.166;2023-12-28T01:46:16;55.90;;;21.63;;
25207;SDS011;13153;52.316;21.166;2023-12-28T01:48:45;47.05;;;22.08;;
25207;SDS011;13153;52.316;21.166;2023-12-28T01:51:14;52.85;;;20.77;;
25207;SDS011;13153;52.316;21.166;2023-12-28T01:53:40;54.50;;;21.35;;
25207;SDS011;13153;52.316;21.166;2023-12-28T01:56:11;48.50;;;20.13;;
25207;SDS011;13153;52.316;21.166;2023-12-28T01:58:37;41.65;;;19.42;;
25207;SDS011;13153;52.316;21.166;2023-12-28T02:01:08;41.78;;;19.60;;
25207;SDS011;13153;52.316;21.166;2023-12-28T02:03:35;44.55;;;19.52;;
25207;SDS011;13153;52.316;21.166;2023-12-28T02:06:01;46.20;;;20.33;;
25207;SDS011;13153;52.316;21.166;2023-12-28T02:08:29;44.47;;;18.98;;
25207;SDS011;13153;52.316;21.166;2023-12-28T02:10:55;50.10;;;18.90;;
25207;SDS011;13153;52.316;21.166;2023-12-28T02:13:21;41.72;;;17.75;;
25207;SDS011;13153;52.316;21.166;2023-12-28T02:15:47;43.15;;;18.33;;
25207;SDS011;13153;52.316;21.166;2023-12-28T02:18:23;39.60;;;17.10;;
25207;SDS011;13153;52.316;21.166;2023-12-28T02:20:59;43.13;;;17.25;;
25207;SDS011;13153;52.316;21.166;2023-12-28T02:23:28;41.05;;;16.17;;
25207;SDS011;13153;52.316;21.166;2023-12-28T02:25:53;40.58;;;17.48;;
25207;SDS011;13153;52.316;21.166;2023-12-28T02:28:19;40.40;;;16.15;;
25207;SDS011;13153;52.316;21.166;2023-12-28T02:30:45;44.72;;;16.55;;
25207;SDS011;13153;52.316;21.166;2023-12-28T02:36:04;39.45;;;15.50;;
25207;SDS011;13153;52.316;21.166;2023-12-28T02:38:36;41.95;;;17.00;;
25207;SDS011;13153;52.316;21.166;2023-12-28T02:41:04;34.72;;;15.70;;
25207;SDS011;13153;52.316;21.166;2023-12-28T02:43:32;35.55;;;14.30;;
25207;SDS011;13153;52.316;21.166;2023-12-28T02:45:58;42.40;;;16.23;;
25207;SDS011;13153;52.316;21.166;2023-12-28T02:48:24;46.90;;;15.70;;
25207;SDS011;13153;52.316;21.166;2023-12-28T02:50:50;44.85;;;16.02;;
25207;SDS011;13153;52.316;21.166;2023-12-28T02:53:16;39.90;;;14.95;;
25207;SDS011;13153;52.316;21.166;2023-12-28T02:55:42;39.38;;;15.75;;
25207;SDS011;13153;52.316;21.166;2023-12-28T02:58:08;39.55;;;14.93;;
25207;SDS011;13153;52.316;21.166;2023-12-28T03:00:33;36.45;;;14.50;;
25207;SDS011;13153;52.316;21.166;2023-12-28T03:02:59;38.00;;;14.90;;
25207;SDS011;13153;52.316;21.166;2023-12-28T03:05:25;36.70;;;14.23;;
25207;SDS011;13153;52.316;21.166;2023-12-28T03:07:51;37.03;;;13.43;;
25207;SDS011;13153;52.316;21.166;2023-12-28T03:10:16;36.90;;;13.93;;
25207;SDS011;13153;52.316;21.166;2023-12-28T03:12:42;37.15;;;14.10;;
25207;SDS011;13153;52.316;21.166;2023-12-28T03:15:08;39.10;;;14.00;;
25207;SDS011;13153;52.316;21.166;2023-12-28T03:17:34;34.92;;;13.77;;
25207;SDS011;13153;52.316;21.166;2023-12-28T03:20:01;35.80;;;13.80;;
25207;SDS011;13153;52.316;21.166;2023-12-28T03:22:28;37.90;;;14.50;;
25207;SDS011;13153;52.316;21.166;2023-12-28T03:24:54;31.45;;;13.43;;
25207;SDS011;13153;52.316;21.166;2023-12-28T03:27:20;33.05;;;14.40;;
25207;SDS011;13153;52.316;21.166;2023-12-28T03:29:45;38.63;;;13.82;;
25207;SDS011;13153;52.316;21.166;2023-12-28T03:32:11;37.83;;;14.05;;
25207;SDS011;13153;52.316;21.166;2023-12-28T03:34:37;37.17;;;13.68;;
25207;SDS011;13153;52.316;21.166;2023-12-28T03:37:03;36.67;;;13.65;;
25207;SDS011;13153;52.316;21.166;2023-12-28T03:39:28;37.20;;;14.25;;
25207;SDS011;13153;52.316;21.166;2023-12-28T03:41:54;35.00;;;14.20;;
25207;SDS011;13153;52.316;21.166;2023-12-28T03:44:20;38.22;;;14.43;;
25207;SDS011;13153;52.316;21.166;2023-12-28T03:46:47;40.13;;;14.60;;
25207;SDS011;13153;52.316;21.166;2023-12-28T03:49:17;44.45;;;13.75;;
25207;SDS011;13153;52.316;21.166;2023-12-28T03:51:45;35.10;;;12.93;;
25207;SDS011;13153;52.316;21.166;2023-12-28T03:54:11;35.13;;;13.95;;
25207;SDS011;13153;52.316;21.166;2023-12-28T03:56:37;36.33;;;13.07;;
25207;SDS011;13153;52.316;21.166;2023-12-28T03:59:08;36.53;;;13.57;;
25207;SDS011;13153;52.316;21.166;2023-12-28T04:01:34;35.67;;;13.15;;
25207;SDS011;13153;52.316;21.166;2023-12-28T04:04:00;39.70;;;13.65;;
25207;SDS011;13153;52.316;21.166;2023-12-28T04:06:26;31.88;;;12.98;;
25207;SDS011;13153;52.316;21.166;2023-12-28T04:08:52;38.65;;;13.32;;
25207;SDS011;13153;52.316;21.166;2023-12-28T04:11:17;31.73;;;12.82;;
25207;SDS011;13153;52.316;21.166;2023-12-28T04:13:43;31.52;;;12.65;;
25207;SDS011;13153;52.316;21.166;2023-12-28T04:16:13;30.10;;;12.18;;
25207;SDS011;13153;52.316;21.166;2023-12-28T04:18:40;32.90;;;13.05;;
25207;SDS011;13153;52.316;21.166;2023-12-28T04:21:10;33.97;;;12.27;;
25207;SDS011;13153;52.316;21.166;2023-12-28T04:23:38;33.72;;;12.00;;
25207;SDS011;13153;52.316;21.166;2023-12-28T04:26:05;38.67;;;12.20;;
25207;SDS011;13153;52.316;21.166;2023-12-28T04:28:31;30.75;;;11.45;;
25207;SDS011;13153;52.316;21.166;2023-12-28T04:31:01;30.88;;;12.10;;
25207;SDS011;13153;52.316;21.166;2023-12-28T04:33:31;27.92;;;11.68;;
25207;SDS011;13153;52.316;21.166;2023-12-28T04:36:00;31.92;;;11.50;;
25207;SDS011;13153;52.316;21.166;2023-12-28T04:38:30;24.83;;;11.13;;
25207;SDS011;13153;52.316;21.166;2023-12-28T04:40:57;26.95;;;11.50;;
25207;SDS011;13153;52.316;21.166;2023-12-28T04:43:24;29.05;;;10.77;;
25207;SDS011;13153;52.316;21.166;2023-12-28T04:45:50;27.02;;;10.98;;
25207;SDS011;13153;52.316;21.166;2023-12-28T04:48:16;30.50;;;11.05;;
25207;SDS011;13153;52.316;21.166;2023-12-28T04:50:46;32.08;;;10.45;;
25207;SDS011;13153;52.316;21.166;2023-12-28T04:53:15;24.30;;;10.63;;
25207;SDS011;13153;52.316;21.166;2023-12-28T04:55:41;26.77;;;10.85;;
25207;SDS011;13153;52.316;21.166;2023-12-28T04:58:07;29.08;;;10.43;;
25207;SDS011;13153;52.316;21.166;2023-12-28T05:00:33;29.00;;;10.68;;
25207;SDS011;13153;52.316;21.166;2023-12-28T05:02:59;29.17;;;10.45;;
25207;SDS011;13153;52.316;21.166;2023-12-28T05:05:25;25.75;;;10.35;;
25207;SDS011;13153;52.316;21.166;2023-12-28T05:07:50;28.98;;;10.73;;
25207;SDS011;13153;52.316;21.166;2023-12-28T05:10:16;30.10;;;11.32;;
25207;SDS011;13153;52.316;21.166;2023-12-28T05:12:42;30.40;;;10.93;;
25207;SDS011;13153;52.316;21.166;2023-12-28T05:15:08;27.13;;;11.52;;
25207;SDS011;13153;52.316;21.166;2023-12-28T05:17:34;28.23;;;11.43;;
25207;SDS011;13153;52.316;21.166;2023-12-28T05:20:00;26.20;;;11.18;;
25207;SDS011;13153;52.316;21.166;2023-12-28T05:22:26;30.20;;;12.05;;
25207;SDS011;13153;52.316;21.166;2023-12-28T05:24:51;27.33;;;11.63;;
25207;SDS011;13153;52.316;21.166;2023-12-28T05:27:17;30.40;;;12.48;;
25207;SDS011;13153;52.316;21.166;2023-12-28T05:29:43;28.42;;;11.75;;
25207;SDS011;13153;52.316;21.166;2023-12-28T05:32:08;31.17;;;12.75;;
25207;SDS011;13153;52.316;21.166;2023-12-28T05:34:34;31.20;;;13.32;;
25207;SDS011;13153;52.316;21.166;2023-12-28T05:37:00;34.38;;;12.75;;
25207;SDS011;13153;52.316;21.166;2023-12-28T05:39:25;29.90;;;12.70;;
25207;SDS011;13153;52.316;21.166;2023-12-28T05:41:51;32.55;;;13.20;;
25207;SDS011;13153;52.316;21.166;2023-12-28T05:44:17;36.10;;;13.57;;
25207;SDS011;13153;52.316;21.166;2023-12-28T05:46:43;31.75;;;13.43;;
25207;SDS011;13153;52.316;21.166;2023-12-28T05:49:08;33.70;;;13.32;;
25207;SDS011;13153;52.316;21.166;2023-12-28T05:51:37;38.33;;;13.15;;
25207;SDS011;13153;52.316;21.166;2023-12-28T05:54:07;38.47;;;12.98;;
25207;SDS011;13153;52.316;21.166;2023-12-28T05:56:33;30.60;;;13.18;;
25207;SDS011;13153;52.316;21.166;2023-12-28T05:58:59;33.30;;;14.43;;
25207;SDS011;13153;52.316;21.166;2023-12-28T06:01:26;33.45;;;14.25;;
25207;SDS011;13153;52.316;21.166;2023-12-28T06:03:52;30.10;;;13.55;;
25207;SDS011;13153;52.316;21.166;2023-12-28T06:06:19;33.08;;;13.30;;
25207;SDS011;13153;52.316;21.166;2023-12-28T06:08:45;37.80;;;14.40;;
25207;SDS011;13153;52.316;21.166;2023-12-28T06:11:11;37.00;;;14.25;;
25207;SDS011;13153;52.316;21.166;2023-12-28T06:13:37;31.80;;;13.38;;
25207;SDS011;13153;52.316;21.166;2023-12-28T06:16:03;35.63;;;15.20;;
25207;SDS011;13153;52.316;21.166;2023-12-28T06:18:29;38.47;;;15.05;;
25207;SDS011;13153;52.316;21.166;2023-12-28T06:20:56;33.60;;;14.57;;
25207;SDS011;13153;52.316;21.166;2023-12-28T06:23:21;36.25;;;14.68;;
25207;SDS011;13153;52.316;21.166;2023-12-28T06:25:47;40.15;;;15.90;;
25207;SDS011;13153;52.316;21.166;2023-12-28T06:28:13;36.97;;;15.73;;
25207;SDS011;13153;52.316;21.166;2023-12-28T06:30:38;41.28;;;15.57;;
25207;SDS011;13153;52.316;21.166;2023-12-28T06:33:04;36.38;;;15.55;;
25207;SDS011;13153;52.316;21.166;2023-12-28T06:35:30;40.45;;;16.73;;
25207;SDS011;13153;52.316;21.166;2023-12-28T06:37:56;36.35;;;15.77;;
25207;SDS011;13153;52.316;21.166;2023-12-28T06:40:22;44.63;;;16.95;;
25207;SDS011;13153;52.316;21.166;2023-12-28T06:42:48;36.25;;;15.65;;
25207;SDS011;13153;52.316;21.166;2023-12-28T06:45:13;36.83;;;16.60;;
25207;SDS011;13153;52.316;21.166;2023-12-28T06:47:39;35.97;;;15.55;;
25207;SDS011;13153;52.316;21.166;2023-12-28T06:50:05;37.70;;;15.40;;
25207;SDS011;13153;52.316;21.166;2023-12-28T06:52:32;42.70;;;16.27;;
25207;SDS011;13153;52.316;21.166;2023-12-28T06:54:58;39.55;;;16.90;;
25207;SDS011;13153;52.316;21.166;2023-12-28T06:57:24;38.30;;;15.57;;
25207;SDS011;13153;52.316;21.166;2023-12-28T06:59:50;35.72;;;15.48;;
25207;SDS011;13153;52.316;21.166;2023-12-28T07:02:15;44.38;;;16.98;;
25207;SDS011;13153;52.316;21.166;2023-12-28T07:04:41;36.60;;;15.05;;
25207;SDS011;13153;52.316;21.166;2023-12-28T07:07:07;34.40;;;15.02;;
25207;SDS011;13153;52.316;21.166;2023-12-28T07:09:32;36.88;;;16.27;;
25207;SDS011;13153;52.316;21.166;2023-12-28T07:11:58;40.50;;;16.38;;
25207;SDS011;13153;52.316;21.166;2023-12-28T07:14:24;41.33;;;16.58;;
25207;SDS011;13153;52.316;21.166;2023-12-28T07:16:50;39.65;;;16.52;;
25207;SDS011;13153;52.316;21.166;2023-12-28T07:19:16;42.95;;;18.45;;
25207;SDS011;13153;52.316;21.166;2023-12-28T07:21:41;36.63;;;16.05;;
25207;SDS011;13153;52.316;21.166;2023-12-28T07:24:07;37.40;;;16.27;;
25207;SDS011;13153;52.316;21.166;2023-12-28T07:26:34;41.22;;;17.45;;
25207;SDS011;13153;52.316;21.166;2023-12-28T07:28:59;36.97;;;16.48;;
25207;SDS011;13153;52.316;21.166;2023-12-28T07:31:26;41.13;;;16.65;;
25207;SDS011;13153;52.316;21.166;2023-12-28T07:33:53;38.13;;;16.48;;
25207;SDS011;13153;52.316;21.166;2023-12-28T07:36:19;39.90;;;17.60;;
25207;SDS011;13153;52.316;21.166;2023-12-28T07:38:45;36.35;;;16.33;;
25207;SDS011;13153;52.316;21.166;2023-12-28T07:41:12;40.65;;;17.33;;
25207;SDS011;13153;52.316;21.166;2023-12-28T07:43:37;41.25;;;17.17;;
25207;SDS011;13153;52.316;21.166;2023-12-28T07:46:03;37.25;;;16.65;;
25207;SDS011;13153;52.316;21.166;2023-12-28T07:48:30;36.78;;;15.35;;
25207;SDS011;13153;52.316;21.166;2023-12-28T07:50:58;36.53;;;15.80;;
25207;SDS011;13153;52.316;21.166;2023-12-28T07:53:29;39.83;;;16.52;;
25207;SDS011;13153;52.316;21.166;2023-12-28T07:55:55;36.13;;;16.10;;
25207;SDS011;13153;52.316;21.166;2023-12-28T07:58:21;40.65;;;16.80;;
25207;SDS011;13153;52.316;21.166;2023-12-28T08:00:47;36.75;;;16.50;;
25207;SDS011;13153;52.316;21.166;2023-12-28T08:03:14;37.17;;;17.02;;
25207;SDS011;13153;52.316;21.166;2023-12-28T08:05:43;39.85;;;17.45;;
25207;SDS011;13153;52.316;21.166;2023-12-28T08:08:08;39.88;;;18.48;;
25207;SDS011;13153;52.316;21.166;2023-12-28T08:10:34;44.08;;;18.10;;
25207;SDS011;13153;52.316;21.166;2023-12-28T08:13:00;42.72;;;17.48;;
25207;SDS011;13153;52.316;21.166;2023-12-28T08:15:25;39.17;;;17.17;;
25207;SDS011;13153;52.316;21.166;2023-12-28T08:17:51;40.35;;;18.05;;
25207;SDS011;13153;52.316;21.166;2023-12-28T08:20:17;39.38;;;17.38;;
25207;SDS011;13153;52.316;21.166;2023-12-28T08:22:42;40.28;;;16.67;;
25207;SDS011;13153;52.316;21.166;2023-12-28T08:25:08;39.88;;;17.17;;
25207;SDS011;13153;52.316;21.166;2023-12-28T08:27:35;44.03;;;17.58;;
25207;SDS011;13153;52.316;21.166;2023-12-28T08:30:01;45.63;;;18.52;;
25207;SDS011;13153;52.316;21.166;2023-12-28T08:32:27;46.45;;;17.83;;
25207;SDS011;13153;52.316;21.166;2023-12-28T08:34:53;40.17;;;18.08;;
25207;SDS011;13153;52.316;21.166;2023-12-28T08:37:18;52.17;;;19.48;;
25207;SDS011;13153;52.316;21.166;2023-12-28T08:39:44;37.28;;;16.55;;
25207;SDS011;13153;52.316;21.166;2023-12-28T08:42:10;42.65;;;17.85;;
25207;SDS011;13153;52.316;21.166;2023-12-28T08:44:36;37.10;;;16.60;;
25207;SDS011;13153;52.316;21.166;2023-12-28T08:47:01;42.92;;;17.00;;
25207;SDS011;13153;52.316;21.166;2023-12-28T08:49:27;36.63;;;16.90;;
25207;SDS011;13153;52.316;21.166;2023-12-28T08:51:54;41.13;;;16.17;;
25207;SDS011;13153;52.316;21.166;2023-12-28T08:54:20;39.03;;;17.05;;
25207;SDS011;13153;52.316;21.166;2023-12-28T08:56:45;42.03;;;17.90;;
25207;SDS011;13153;52.316;21.166;2023-12-28T08:59:13;35.75;;;18.42;;
25207;SDS011;13153;52.316;21.166;2023-12-28T09:01:39;37.50;;;17.23;;
25207;SDS011;13153;52.316;21.166;2023-12-28T09:04:04;35.40;;;16.58;;
25207;SDS011;13153;52.316;21.166;2023-12-28T09:06:30;36.78;;;17.15;;
25207;SDS011;13153;52.316;21.166;2023-12-28T09:08:56;40.47;;;17.45;;
25207;SDS011;13153;52.316;21.166;2023-12-28T09:11:22;44.35;;;18.77;;
25207;SDS011;13153;52.316;21.166;2023-12-28T09:13:48;36.88;;;17.58;;
25207;SDS011;13153;52.316;21.166;2023-12-28T09:16:14;41.03;;;17.88;;
25207;SDS011;13153;52.316;21.166;2023-12-28T09:18:41;37.83;;;16.95;;
25207;SDS011;13153;52.316;21.166;2023-12-28T09:21:07;35.03;;;16.98;;
25207;SDS011;13153;52.316;21.166;2023-12-28T09:23:34;41.28;;;18.67;;
25207;SDS011;13153;52.316;21.166;2023-12-28T09:26:01;44.28;;;18.60;;
25207;SDS011;13153;52.316;21.166;2023-12-28T09:28:28;48.97;;;19.52;;
25207;SDS011;13153;52.316;21.166;2023-12-28T09:30:55;40.58;;;18.17;;
25207;SDS011;13153;52.316;21.166;2023-12-28T09:33:20;38.13;;;18.55;;
25207;SDS011;13153;52.316;21.166;2023-12-28T09:35:46;35.55;;;17.33;;
25207;SDS011;13153;52.316;21.166;2023-12-28T09:38:13;38.42;;;17.90;;
25207;SDS011;13153;52.316;21.166;2023-12-28T09:40:43;35.33;;;17.83;;
25207;SDS011;13153;52.316;21.166;2023-12-28T09:43:13;32.33;;;16.50;;
25207;SDS011;13153;52.316;21.166;2023-12-28T09:45:48;34.67;;;17.52;;
25207;SDS011;13153;52.316;21.166;2023-12-28T09:48:18;35.10;;;16.75;;
25207;SDS011;13153;52.316;21.166;2023-12-28T09:50:49;34.58;;;15.57;;
25207;SDS011;13153;52.316;21.166;2023-12-28T09:53:16;34.78;;;16.13;;
25207;SDS011;13153;52.316;21.166;2023-12-28T09:55:42;30.90;;;15.02;;
25207;SDS011;13153;52.316;21.166;2023-12-28T09:58:10;30.10;;;15.85;;
25207;SDS011;13153;52.316;21.166;2023-12-28T10:00:43;29.77;;;15.23;;
25207;SDS011;13153;52.316;21.166;2023-12-28T10:03:10;31.65;;;15.20;;
25207;SDS011;13153;52.316;21.166;2023-12-28T10:05:41;34.00;;;16.20;;
25207;SDS011;13153;52.316;21.166;2023-12-28T10:08:07;33.13;;;16.23;;
25207;SDS011;13153;52.316;21.166;2023-12-28T10:10:33;29.50;;;14.77;;
25207;SDS011;13153;52.316;21.166;2023-12-28T10:13:00;25.48;;;12.55;;
25207;SDS011;13153;52.316;21.166;2023-12-28T10:15:27;23.83;;;11.98;;
25207;SDS011;13153;52.316;21.166;2023-12-28T10:17:52;28.10;;;11.90;;
25207;SDS011;13153;52.316;21.166;2023-12-28T10:20:18;25.58;;;10.38;;
25207;SDS011;13153;52.316;21.166;2023-12-28T10:22:44;18.50;;;9.93;;
25207;SDS011;13153;52.316;21.166;2023-12-28T10:25:11;23.05;;;10.35;;
25207;SDS011;13153;52.316;21.166;2023-12-28T10:27:38;21.20;;;10.43;;
25207;SDS011;13153;52.316;21.166;2023-12-28T10:30:06;17.05;;;9.43;;
25207;SDS011;13153;52.316;21.166;2023-12-28T10:32:33;20.52;;;9.63;;
25207;SDS011;13153;52.316;21.166;2023-12-28T10:34:59;21.27;;;10.25;;
25207;SDS011;13153;52.316;21.166;2023-12-28T10:37:24;21.98;;;10.75;;
25207;SDS011;13153;52.316;21.166;2023-12-28T10:39:53;19.15;;;10.05;;
25207;SDS011;13153;52.316;21.166;2023-12-28T10:42:29;20.30;;;10.15;;
25207;SDS011;13153;52.316;21.166;2023-12-28T10:45:01;17.27;;;9.48;;
25207;SDS011;13153;52.316;21.166;2023-12-28T10:47:31;18.48;;;9.00;;
25207;SDS011;13153;52.316;21.166;2023-12-28T10:50:00;20.58;;;9.52;;
25207;SDS011;13153;52.316;21.166;2023-12-28T10:52:32;21.63;;;9.68;;
25207;SDS011;13153;52.316;21.166;2023-12-28T10:55:33;18.77;;;9.35;;
25207;SDS011;13153;52.316;21.166;2023-12-28T10:58:15;21.35;;;10.07;;
25207;SDS011;13153;52.316;21.166;2023-12-28T11:00:55;19.98;;;10.57;;
25207;SDS011;13153;52.316;21.166;2023-12-28T11:03:31;19.98;;;9.88;;
25207;SDS011;13153;52.316;21.166;2023-12-28T11:06:02;21.08;;;9.68;;
25207;SDS011;13153;52.316;21.166;2023-12-28T11:08:30;18.02;;;8.95;;
25207;SDS011;13153;52.316;21.166;2023-12-28T11:10:59;18.52;;;8.98;;
25207;SDS011;13153;52.316;21.166;2023-12-28T11:13:28;22.83;;;10.00;;
25207;SDS011;13153;52.316;21.166;2023-12-28T11:15:57;19.02;;;9.80;;
25207;SDS011;13153;52.316;21.166;2023-12-28T11:18:25;19.23;;;9.50;;
25207;SDS011;13153;52.316;21.166;2023-12-28T11:20:53;19.08;;;10.65;;
25207;SDS011;13153;52.316;21.166;2023-12-28T11:23:19;24.70;;;11.77;;
25207;SDS011;13153;52.316;21.166;2023-12-28T11:25:45;21.23;;;11.15;;
25207;SDS011;13153;52.316;21.166;2023-12-28T11:28:11;22.70;;;13.00;;
25207;SDS011;13153;52.316;21.166;2023-12-28T11:30:41;29.30;;;12.93;;
25207;SDS011;13153;52.316;21.166;2023-12-28T11:33:07;27.42;;;12.75;;
25207;SDS011;13153;52.316;21.166;2023-12-28T11:35:36;27.25;;;13.30;;
25207;SDS011;13153;52.316;21.166;2023-12-28T11:38:04;25.52;;;13.57;;
25207;SDS011;13153;52.316;21.166;2023-12-28T11:40:40;25.77;;;14.52;;
25207;SDS011;13153;52.316;21.166;2023-12-28T11:43:15;25.63;;;14.73;;
25207;SDS011;13153;52.316;21.166;2023-12-28T11:45:47;24.92;;;14.70;;
25207;SDS011;13153;52.316;21.166;2023-12-28T11:48:24;28.65;;;14.93;;
25207;SDS011;13153;52.316;21.166;2023-12-28T11:50:53;21.90;;;11.93;;
25207;SDS011;13153;52.316;21.166;2023-12-28T11:53:22;20.02;;;10.70;;
25207;SDS011;13153;52.316;21.166;2023-12-28T11:55:49;19.98;;;11.30;;
25207;SDS011;13153;52.316;21.166;2023-12-28T11:58:16;19.33;;;10.00;;
25207;SDS011;13153;52.316;21.166;2023-12-28T12:00:43;17.10;;;9.32;;
25207;SDS011;13153;52.316;21.166;2023-12-28T12:03:09;17.42;;;9.35;;
25207;SDS011;13153;52.316;21.166;2023-12-28T12:05:39;17.58;;;9.25;;
25207;SDS011;13153;52.316;21.166;2023-12-28T12:08:05;16.63;;;9.27;;
25207;SDS011;13153;52.316;21.166;2023-12-28T12:10:33;18.75;;;9.30;;
25207;SDS011;13153;52.316;21.166;2023-12-28T12:13:00;16.05;;;8.77;;
25207;SDS011;13153;52.316;21.166;2023-12-28T12:15:27;18.88;;;9.07;;
25207;SDS011;13153;52.316;21.166;2023-12-28T12:17:54;16.55;;;9.32;;
25207;SDS011;13153;52.316;21.166;2023-12-28T12:20:20;16.48;;;9.77;;
25207;SDS011;13153;52.316;21.166;2023-12-28T12:22:48;16.25;;;8.43;;
25207;SDS011;13153;52.316;21.166;2023-12-28T12:25:14;20.33;;;9.90;;
25207;SDS011;13153;52.316;21.166;2023-12-28T12:27:44;15.90;;;9.40;;
25207;SDS011;13153;52.316;21.166;2023-12-28T12:30:10;20.08;;;9.70;;
25207;SDS011;13153;52.316;21.166;2023-12-28T12:32:36;19.30;;;9.35;;
25207;SDS011;13153;52.316;21.166;2023-12-28T12:35:05;17.90;;;9.48;;
25207;SDS011;13153;52.316;21.166;2023-12-28T12:37:31;17.50;;;8.90;;
25207;SDS011;13153;52.316;21.166;2023-12-28T12:39:57;19.95;;;9.75;;
25207;SDS011;13153;52.316;21.166;2023-12-28T12:42:24;17.42;;;9.52;;
25207;SDS011;13153;52.316;21.166;2023-12-28T12:44:50;15.88;;;9.35;;
25207;SDS011;13153;52.316;21.166;2023-12-28T12:47:16;20.50;;;10.07;;
25207;SDS011;13153;52.316;21.166;2023-12-28T12:49:41;18.13;;;9.55;;
25207;SDS011;13153;52.316;21.166;2023-12-28T12:52:09;21.80;;;9.52;;
25207;SDS011;13153;52.316;21.166;2023-12-28T12:54:35;18.50;;;9.73;;
25207;SDS011;13153;52.316;21.166;2023-12-28T12:57:00;19.35;;;9.40;;
25207;SDS011;13153;52.316;21.166;2023-12-28T12:59:27;18.05;;;9.38;;
25207;SDS011;13153;52.316;21.166;2023-12-28T13:01:54;20.27;;;9.40;;
25207;SDS011;13153;52.316;21.166;2023-12-28T13:04:20;15.80;;;8.73;;
25207;SDS011;13153;52.316;21.166;2023-12-28T13:06:46;20.50;;;9.23;;
25207;SDS011;13153;52.316;21.166;2023-12-28T13:09:12;18.17;;;9.23;;
25207;SDS011;13153;52.316;21.166;2023-12-28T13:11:38;19.08;;;8.77;;
25207;SDS011;13153;52.316;21.166;2023-12-28T13:14:04;20.80;;;8.93;;
25207;SDS011;13153;52.316;21.166;2023-12-28T13:16:29;16.13;;;8.20;;
25207;SDS011;13153;52.316;21.166;2023-12-28T13:18:55;15.75;;;8.60;;
25207;SDS011;13153;52.316;21.166;2023-12-28T13:21:22;16.05;;;8.48;;
25207;SDS011;13153;52.316;21.166;2023-12-28T13:23:48;15.57;;;8.95;;
25207;SDS011;13153;52.316;21.166;2023-12-28T13:26:14;20.63;;;9.65;;
25207;SDS011;13153;52.316;21.166;2023-12-28T13:28:40;23.90;;;9.35;;
25207;SDS011;13153;52.316;21.166;2023-12-28T13:31:07;18.42;;;9.73;;
25207;SDS011;13153;52.316;21.166;2023-12-28T13:33:33;19.00;;;9.25;;
25207;SDS011;13153;52.316;21.166;2023-12-28T13:35:59;16.13;;;8.38;;
25207;SDS011;13153;52.316;21.166;2023-12-28T13:38:25;17.92;;;8.80;;
25207;SDS011;13153;52.316;21.166;2023-12-28T13:40:50;18.13;;;8.73;;
25207;SDS011;13153;52.316;21.166;2023-12-28T13:43:16;20.88;;;8.80;;
25207;SDS011;13153;52.316;21.166;2023-12-28T13:45:42;18.35;;;9.40;;
25207;SDS011;13153;52.316;21.166;2023-12-28T13:48:08;19.13;;;8.80;;
25207;SDS011;13153;52.316;21.166;2023-12-28T13:50:34;18.00;;;8.70;;
25207;SDS011;13153;52.316;21.166;2023-12-28T13:52:59;18.33;;;9.20;;
25207;SDS011;13153;52.316;21.166;2023-12-28T13:55:25;16.27;;;8.32;;
25207;SDS011;13153;52.316;21.166;2023-12-28T13:57:53;17.42;;;8.85;;
25207;SDS011;13153;52.316;21.166;2023-12-28T14:00:18;16.40;;;9.20;;
25207;SDS011;13153;52.316;21.166;2023-12-28T14:02:44;17.42;;;9.02;;
25207;SDS011;13153;52.316;21.166;2023-12-28T14:05:10;17.38;;;9.25;;
25207;SDS011;13153;52.316;21.166;2023-12-28T14:07:36;18.00;;;9.13;;
25207;SDS011;13153;52.316;21.166;2023-12-28T14:10:01;17.17;;;8.10;;
25207;SDS011;13153;52.316;21.166;2023-12-28T14:12:28;16.10;;;8.23;;